Time;durP1;ratioP1;P1;durP2;ratioP2;P2;SDS_P1;SDS_P2;PMS_P1;PMS_P2;Temp;Humidity;BMP_temperature;BMP_pressure;BME280_temperature;BME280_humidity;BME280_pressure;Samples;Min_cycle;Max_cycle;Signal;HPM_P1;HPM_P2
2023/02/14 04:27:31;;;;;;;36.25;17.80;;;;;;;-2.11;100.00;98051.75;6240125;22;20474;-85
2023/02/14 04:29:56;;;;;;;39.10;18.03;;;;;;;-2.09;100.00;98047.44;6190183;23;20123;-85
2023/02/14 04:32:22;;;;;;;39.33;18.57;;;;;;;-2.07;100.00;98045.69;6214102;23;20504;-85
2023/02/14 04:34:48;;;;;;;38.97;18.77;;;;;;;-2.04;100.00;98043.03;6191320;23;20004;-85
2023/02/14 04:37:19;;;;;;;38.33;18.67;;;;;;;-1.97;100.00;98049.72;6211610;23;20068;-88
2023/02/14 04:39:44;;;;;;;38.53;18.93;;;;;;;-2.01;100.00;98041.22;6183869;23;20343;-88
2023/02/14 04:42:10;;;;;;;41.87;19.03;;;;;;;-1.94;100.00;98040.19;6160500;23;20428;-87
2023/02/14 04:44:39;;;;;;;40.43;18.83;;;;;;;-1.88;100.00;98030.59;6158148;23;20008;-87
2023/02/14 04:47:06;;;;;;;44.97;21.70;;;;;;;-1.86;100.00;98032.25;6159357;23;20013;-87
2023/02/14 04:49:32;;;;;;;39.37;19.13;;;;;;;-1.78;100.00;98029.47;6160231;23;20416;-86
2023/02/14 04:51:58;;;;;;;39.60;19.33;;;;;;;-1.83;100.00;98029.59;6189671;23;20415;-86
2023/02/14 04:54:24;;;;;;;41.83;21.00;;;;;;;-1.79;100.00;98033.78;6184390;23;20411;-86
2023/02/14 04:56:51;;;;;;;45.47;21.70;;;;;;;-1.78;100.00;98034.63;6185641;23;20732;-86
2023/02/14 04:59:17;;;;;;;41.40;20.27;;;;;;;-1.78;100.00;98030.31;6161845;23;20013;-86
2023/02/14 05:01:45;;;;;;;37.47;19.67;;;;;;;-1.72;100.00;98042.19;6185858;23;20499;-85
2023/02/14 05:04:11;;;;;;;37.93;19.37;;;;;;;-1.74;100.00;98031.09;6162968;23;20515;-85
2023/02/14 05:06:36;;;;;;;40.10;18.93;;;;;;;-1.75;100.00;98025.06;6160835;23;20514;-85
2023/02/14 05:09:02;;;;;;;41.57;19.67;;;;;;;-1.72;100.00;98019.00;6159718;23;20680;-84
2023/02/14 05:11:29;;;;;;;36.33;17.83;;;;;;;-1.72;100.00;98014.66;6210933;23;20013;-86
2023/02/14 05:13:54;;;;;;;34.37;17.47;;;;;;;-1.79;100.00;98013.16;6210441;23;20515;-86
2023/02/14 05:16:20;;;;;;;41.00;18.80;;;;;;;-1.74;100.00;98016.47;6185761;23;21220;-85
2023/02/14 05:18:46;;;;;;;37.20;17.77;;;;;;;-1.75;100.00;98013.91;6185491;23;20344;-86
2023/02/14 05:21:12;;;;;;;37.50;17.60;;;;;;;-1.78;100.00;98011.41;6160223;23;20332;-87
2023/02/14 05:23:38;;;;;;;32.53;16.67;;;;;;;-1.82;100.00;98005.47;6160654;23;20099;-85
2023/02/14 05:26:04;;;;;;;35.00;18.67;;;;;;;-1.80;100.00;98013.19;6184501;23;20477;-85
2023/02/14 05:28:32;;;;;;;39.70;18.97;;;;;;;-1.80;100.00;98014.03;6185897;23;20016;-85
2023/02/14 05:31:00;;;;;;;36.60;17.50;;;;;;;-1.76;100.00;98007.06;6210539;23;20436;-85
2023/02/14 05:33:26;;;;;;;35.17;16.87;;;;;;;-1.79;100.00;98002.81;6209859;23;20907;-84
2023/02/14 05:35:54;;;;;;;36.20;17.90;;;;;;;-1.84;100.00;98006.44;6188290;23;20513;-86
2023/02/14 05:38:20;;;;;;;34.57;18.93;;;;;;;-1.85;100.00;98002.13;6211845;23;20016;-86
2023/02/14 05:40:46;;;;;;;35.53;17.20;;;;;;;-1.86;100.00;98009.03;6160528;23;20407;-85
2023/02/14 05:43:12;;;;;;;31.67;16.37;;;;;;;-1.94;100.00;98013.56;6189738;23;20435;-86
2023/02/14 05:45:38;;;;;;;30.33;15.70;;;;;;;-2.02;100.00;98006.00;6197711;23;20086;-86
2023/02/14 05:48:05;;;;;;;31.53;16.20;;;;;;;-2.08;100.00;98008.72;6178891;22;19988;-84
2023/02/14 05:50:30;;;;;;;29.60;15.97;;;;;;;-2.20;100.00;98009.03;6212235;23;20443;-86
2023/02/14 05:53:01;;;;;;;30.60;17.30;;;;;;;-2.18;100.00;98013.28;6165186;23;20755;-86
2023/02/14 05:55:28;;;;;;;30.47;16.47;;;;;;;-2.18;100.00;98005.53;6162514;23;20036;-86
2023/02/14 05:57:56;;;;;;;31.23;16.60;;;;;;;-2.23;100.00;98016.84;6211981;23;20459;-85
2023/02/14 06:00:24;;;;;;;25.97;14.20;;;;;;;-2.21;100.00;98020.25;6184520;23;20379;-87
2023/02/14 06:02:53;;;;;;;27.93;14.90;;;;;;;-2.27;100.00;98016.06;6184780;23;20455;-87
2023/02/14 06:05:28;;;;;;;27.20;15.43;;;;;;;-2.18;100.00;98012.41;6160939;23;20438;-89
2023/02/14 06:08:01;;;;;;;26.63;15.23;;;;;;;-2.20;100.00;98017.59;6185006;23;21377;-89
2023/02/14 06:10:29;;;;;;;30.73;14.90;;;;;;;-2.20;100.00;98009.03;6185177;23;20424;-86
2023/02/14 06:13:01;;;;;;;28.13;15.40;;;;;;;-2.16;100.00;98006.34;6185638;23;20742;-88
2023/02/14 06:15:27;;;;;;;28.77;14.73;;;;;;;-2.20;100.00;98009.88;6185652;23;20420;-88
2023/02/14 06:18:20;;;;;;;29.70;15.30;;;;;;;-2.20;100.00;98017.59;6160725;23;20451;-87
2023/02/14 06:20:46;;;;;;;30.50;15.83;;;;;;;-2.08;100.00;98025.91;6208672;23;20012;-87
2023/02/14 06:23:12;;;;;;;26.80;14.73;;;;;;;-2.07;100.00;98007.84;6185455;23;20428;-86
2023/02/14 06:25:41;;;;;;;28.73;15.43;;;;;;;-2.02;100.00;98018.03;6211185;23;20424;-86
2023/02/14 06:28:06;;;;;;;33.03;18.07;;;;;;;-2.04;100.00;98023.25;6186205;23;20044;-87
2023/02/14 06:30:32;;;;;;;31.20;15.83;;;;;;;-2.00;100.00;98024.00;6187736;23;20457;-87
2023/02/14 06:32:59;;;;;;;29.30;15.93;;;;;;;-2.00;100.00;98029.16;6207334;22;20144;-87
2023/02/14 06:35:24;;;;;;;32.10;16.57;;;;;;;-1.94;100.00;98026.44;6201753;23;20017;-87
2023/02/14 06:37:50;;;;;;;32.90;16.20;;;;;;;-1.95;100.00;98035.03;6159467;23;20450;-86
2023/02/14 06:40:19;;;;;;;39.17;19.27;;;;;;;-1.90;100.00;98035.78;6184382;23;20024;-87
2023/02/14 06:42:46;;;;;;;33.07;16.63;;;;;;;-1.93;100.00;98035.88;6210172;23;20027;-88
2023/02/14 06:45:11;;;;;;;33.50;17.60;;;;;;;-1.95;100.00;98037.63;6183809;23;20910;-87
2023/02/14 06:47:37;;;;;;;32.33;16.70;;;;;;;-1.94;100.00;98045.34;6160169;23;20442;-87
2023/02/14 06:50:04;;;;;;;33.47;17.40;;;;;;;-1.88;100.00;98044.31;6158880;23;20017;-88
2023/02/14 06:52:34;;;;;;;29.03;15.50;;;;;;;-1.84;100.00;98037.38;6182341;23;20021;-87
2023/02/14 06:55:00;;;;;;;28.47;16.33;;;;;;;-1.83;100.00;98047.63;6184997;23;20443;-87
2023/02/14 06:57:25;;;;;;;30.63;15.60;;;;;;;-1.76;100.00;98043.16;6159346;23;20435;-86
2023/02/14 06:59:51;;;;;;;49.07;23.00;;;;;;;-1.77;100.00;98047.50;6185419;23;20027;-87
2023/02/14 07:02:17;;;;;;;52.43;25.17;;;;;;;-1.73;100.00;98043.94;6159054;23;20020;-85
2023/02/14 07:04:50;;;;;;;39.53;19.37;;;;;;;-1.70;100.00;98041.28;6209786;23;20009;-86
2023/02/14 07:07:15;;;;;;;33.75;17.33;;;;;;;-1.60;100.00;98041.06;6210261;23;20070;-87
2023/02/14 07:09:47;;;;;;;32.57;17.30;;;;;;;-1.51;100.00;98033.91;6159587;23;20098;-86
2023/02/14 07:12:30;;;;;;;29.50;15.13;;;;;;;-1.43;100.00;98031.13;6183163;23;20009;-87
2023/02/14 07:14:55;;;;;;;20.02;11.27;;;;;;;-1.23;100.00;98033.16;6182403;23;20428;-87
2023/02/14 07:17:21;;;;;;;31.00;15.63;;;;;;;-1.32;100.00;98030.81;6160822;23;20024;-87
2023/02/14 07:19:48;;;;;;;28.27;14.63;;;;;;;-1.02;100.00;98029.97;6208433;23;20019;-87
2023/02/14 07:22:13;;;;;;;24.23;13.87;;;;;;;-0.92;100.00;98027.13;6158624;23;20016;-87
2023/02/14 07:24:50;;;;;;;24.77;14.07;;;;;;;-0.86;100.00;98032.97;6185280;23;20621;-86
2023/02/14 07:27:15;;;;;;;24.13;13.60;;;;;;;-0.66;100.00;98032.38;6159915;23;20020;-87
2023/02/14 07:29:42;;;;;;;25.27;13.50;;;;;;;-0.37;100.00;98031.50;6159838;23;20490;-85
2023/02/14 07:32:08;;;;;;;23.50;14.23;;;;;;;-0.14;100.00;98022.13;6188310;23;20384;-85
2023/02/14 07:34:37;;;;;;;23.53;12.50;;;;;;;0.07;100.00;98018.88;6166726;23;20427;-84
2023/02/14 07:37:02;;;;;;;22.17;12.00;;;;;;;-0.03;100.00;98017.50;6190028;23;20016;-85
2023/02/14 07:39:28;;;;;;;20.43;11.90;;;;;;;0.29;100.00;98011.22;6189548;23;20419;-85
2023/02/14 07:41:54;;;;;;;20.27;12.03;;;;;;;0.55;100.00;98001.72;6186112;23;20356;-86
2023/02/14 07:44:37;;;;;;;18.07;10.70;;;;;;;0.46;100.00;98000.28;6184867;23;20024;-85
2023/02/14 07:47:33;;;;;;;19.50;10.57;;;;;;;0.46;100.00;97997.69;6160237;23;20020;-88
2023/02/14 07:49:59;;;;;;;18.10;10.57;;;;;;;0.22;100.00;98005.41;6210345;23;20404;-88
2023/02/14 07:52:35;;;;;;;19.60;12.07;;;;;;;1.14;100.00;97991.78;6160212;23;20399;-88
2023/02/14 07:55:01;;;;;;;17.53;10.33;;;;;;;1.04;100.00;97989.56;6183031;23;20032;-88
2023/02/14 07:57:55;;;;;;;18.00;10.83;;;;;;;1.00;100.00;97981.06;6184832;23;20454;-89
2023/02/14 08:00:31;;;;;;;18.47;10.93;;;;;;;1.35;100.00;97984.06;6210987;23;20059;-88
2023/02/14 08:02:57;;;;;;;15.80;9.70;;;;;;;1.71;100.00;97975.72;6161035;23;20474;-89
2023/02/14 08:05:25;;;;;;;16.47;10.00;;;;;;;1.69;100.00;97975.81;6159475;23;20763;-89
2023/02/14 08:07:55;;;;;;;15.97;9.23;;;;;;;2.37;100.00;97966.03;6159624;23;20051;-89
2023/02/14 08:10:21;;;;;;;16.57;10.50;;;;;;;2.17;100.00;97966.06;6158981;23;20416;-89
2023/02/14 08:13:00;;;;;;;17.37;10.47;;;;;;;2.78;100.00;97960.78;6184222;23;21177;-88
2023/02/14 08:18:17;;;;;;;16.90;9.80;;;;;;;2.59;100.00;97966.81;6209636;23;20379;-88
2023/02/14 08:20:44;;;;;;;16.10;9.10;;;;;;;2.77;100.00;97967.75;6208424;23;20009;-87
2023/02/14 08:23:11;;;;;;;14.50;9.63;;;;;;;3.70;100.00;97957.34;6183456;23;20017;-88
2023/02/14 08:25:57;;;;;;;18.57;8.87;;;;;;;3.86;100.00;97951.41;6183850;23;20000;-86
2023/02/14 08:28:24;;;;;;;15.37;9.53;;;;;;;3.65;100.00;97950.69;6184698;23;20098;-88
2023/02/14 08:30:50;;;;;;;14.97;9.60;;;;;;;3.58;100.00;97942.31;6157073;23;20025;-88
2023/02/14 08:33:23;;;;;;;15.67;9.90;;;;;;;3.25;100.00;97948.25;6159977;23;20066;-89
2023/02/14 08:36:19;;;;;;;13.75;9.40;;;;;;;3.17;100.00;97946.91;6183863;23;20012;-88
2023/02/14 08:39:01;;;;;;;;;;;;;;;;;;;;;
2023/02/14 08:41:52;;;;;;;16.33;10.30;;;;;;;4.57;100.00;97943.47;6205663;23;20017;-89
2023/02/14 08:44:21;;;;;;;17.93;10.70;;;;;;;4.30;100.00;97950.94;6183229;23;20036;-89
2023/02/14 08:46:47;;;;;;;15.67;9.17;;;;;;;4.79;100.00;97938.78;6158913;23;20066;-89
2023/02/14 08:49:19;;;;;;;14.60;9.20;;;;;;;5.40;100.00;97934.63;6184057;23;20012;-89
2023/02/14 08:52:00;;;;;;;16.23;9.43;;;;;;;5.36;100.00;97920.06;6184397;23;20016;-88
2023/02/14 08:54:52;;;;;;;14.70;8.85;;;;;;;5.67;100.00;97919.19;6179670;23;20083;-89
2023/02/14 08:57:27;;;;;;;15.57;9.50;;;;;;;5.48;100.00;97915.94;6184253;23;20083;-89
2023/02/14 08:59:53;;;;;;;15.23;10.00;;;;;;;6.44;100.00;97906.88;6184838;23;20008;-89
2023/02/14 09:02:19;;;;;;;15.60;9.30;;;;;;;6.32;100.00;97909.31;6160955;23;20088;-89
2023/02/14 09:04:45;;;;;;;15.27;9.90;;;;;;;5.99;100.00;97916.53;6192018;22;20000;-89
2023/02/14 09:07:12;;;;;;;15.90;9.17;;;;;;;5.93;100.00;97912.47;6186066;22;20021;-88
2023/02/14 09:09:43;;;;;;;13.63;8.90;;;;;;;6.57;100.00;97903.44;6188401;23;20016;-87
2023/02/14 09:12:12;;;;;;;15.43;9.77;;;;;;;5.98;100.00;97915.69;6182698;23;20040;-87
2023/02/14 09:14:44;;;;;;;14.60;9.27;;;;;;;5.80;100.00;97914.09;6183295;23;20503;-87
2023/02/14 09:17:15;;;;;;;14.30;9.13;;;;;;;5.59;100.00;97906.56;6159047;23;20028;-86
2023/02/14 09:19:41;;;;;;;14.10;8.60;;;;;;;6.52;100.00;97912.50;6157881;23;20025;-86
2023/02/14 09:22:19;;;;;;;13.53;8.27;;;;;;;4.72;100.00;97913.97;6158533;23;20012;-87
2023/02/14 09:24:47;;;;;;;16.83;9.43;;;;;;;5.07;100.00;97911.25;6157374;23;20016;-87
2023/02/14 09:27:13;;;;;;;14.40;8.83;;;;;;;5.88;100.00;97910.13;6208188;23;20028;-86
2023/02/14 09:29:39;;;;;;;14.33;9.37;;;;;;;5.35;100.00;97903.56;6158088;23;20020;-87
2023/02/14 09:32:05;;;;;;;13.77;8.40;;;;;;;6.16;100.00;97887.63;6208656;23;20344;-88
2023/02/14 09:34:39;;;;;;;14.87;9.13;;;;;;;6.66;100.00;97890.75;6158793;23;20009;-87
2023/02/14 09:37:05;;;;;;;15.67;9.20;;;;;;;6.36;100.00;97895.13;6161231;23;20063;-87
2023/02/14 09:39:39;;;;;;;13.63;9.50;;;;;;;6.96;100.00;97893.22;6178805;22;20004;-87
2023/02/14 09:42:39;;;;;;;18.67;9.33;;;;;;;5.99;100.00;97898.25;6184035;23;20451;-87
2023/02/14 09:45:23;;;;;;;14.43;9.40;;;;;;;6.35;100.00;97898.66;6188082;23;20016;-86
2023/02/14 09:47:55;;;;;;;15.23;9.33;;;;;;;7.47;100.00;97893.47;6160634;23;20111;-86
2023/02/14 09:50:34;;;;;;;13.60;9.17;;;;;;;8.27;100.00;97884.63;6158962;23;20070;-87
2023/02/14 09:53:24;;;;;;;15.00;9.93;;;;;;;8.27;100.00;97883.78;6186341;23;20687;-86
2023/02/14 09:55:54;;;;;;;15.17;9.93;;;;;;;8.84;100.00;97882.50;6208948;23;20016;-87
2023/02/14 09:58:58;;;;;;;13.07;9.20;;;;;;;9.32;100.00;97880.81;6185729;23;20024;-87
2023/02/14 10:01:48;;;;;;;10.77;6.75;;;;;;;9.17;100.00;97874.88;6129465;23;20449;-87
2023/02/14 10:04:29;;;;;;;14.10;8.63;;;;;;;9.82;100.00;97880.66;6160797;23;20495;-87
2023/02/14 10:07:21;;;;;;;12.33;8.63;;;;;;;8.31;100.00;97887.03;6209651;23;20048;-87
2023/02/14 10:10:21;;;;;;;16.27;9.63;;;;;;;9.55;100.00;97876.50;6184908;23;20357;-87
2023/02/14 10:13:22;;;;;;;14.80;9.40;;;;;;;9.16;100.00;97875.81;6186174;23;20015;-87
2023/02/14 10:16:02;;;;;;;11.93;8.70;;;;;;;11.88;100.00;97863.63;6209961;23;20071;-87
2023/02/14 10:18:44;;;;;;;12.37;8.50;;;;;;;9.10;100.00;97873.63;6185047;23;20023;-86
2023/02/14 10:21:40;;;;;;;11.83;8.10;;;;;;;9.75;100.00;97876.81;6162887;23;20017;-87
2023/02/14 10:24:22;;;;;;;14.97;8.57;;;;;;;9.24;100.00;97874.44;6216438;23;20013;-86
2023/02/14 10:26:49;;;;;;;13.27;8.30;;;;;;;9.14;100.00;97882.13;6165253;23;20012;-86
2023/02/14 10:29:17;;;;;;;12.27;7.90;;;;;;;9.26;100.00;97873.38;6185174;23;20015;-86
2023/02/14 10:31:55;;;;;;;13.07;8.83;;;;;;;9.71;100.00;97867.50;6185717;23;20012;-87
2023/02/14 10:34:49;;;;;;;13.40;8.07;;;;;;;9.89;100.00;97874.00;6160555;23;20012;-87
2023/02/14 10:37:28;;;;;;;11.70;7.80;;;;;;;9.31;100.00;97875.66;6210353;23;20099;-87
2023/02/14 10:40:21;;;;;;;11.43;8.10;;;;;;;9.50;100.00;97875.16;6184423;23;20028;-86
2023/02/14 10:43:14;;;;;;;11.43;8.13;;;;;;;10.51;100.00;97863.16;6210934;23;20099;-87
2023/02/14 10:49:30;;;;;;;11.90;7.30;;;;;;;10.12;100.00;97851.22;6208665;23;20017;-87
2023/02/14 10:52:24;;;;;;;11.07;7.27;;;;;;;9.61;100.00;97851.56;6184507;23;20012;-87
2023/02/14 10:55:13;;;;;;;12.40;8.27;;;;;;;9.67;100.00;97851.97;6184185;23;20023;-88
2023/02/14 10:58:03;;;;;;;12.70;8.83;;;;;;;8.91;100.00;97842.59;6186241;23;20024;-87
2023/02/14 11:00:36;;;;;;;11.80;7.57;;;;;;;10.08;100.00;97845.38;6185013;23;20017;-87
2023/02/14 11:03:07;;;;;;;13.55;8.05;;;;;;;9.99;100.00;97842.59;6184649;23;20016;-87
2023/02/14 11:05:38;;;;;;;13.67;7.73;;;;;;;10.50;100.00;97829.09;6165524;23;20707;-87
2023/02/14 11:08:33;;;;;;;11.83;7.37;;;;;;;10.72;100.00;97834.31;6211037;23;20112;-88
2023/02/14 11:11:10;;;;;;;11.20;7.30;;;;;;;11.41;100.00;97830.59;6183883;23;20040;-88
2023/02/14 11:17:40;;;;;;;11.37;7.43;;;;;;;11.52;100.00;97827.91;6226483;22;20035;-88
2023/02/14 11:20:26;;;;;;;11.63;7.50;;;;;;;11.34;100.00;97817.09;6188600;22;20005;-88
2023/02/14 11:23:40;;;;;;;12.13;7.87;;;;;;;11.29;100.00;97822.72;6170113;23;20012;-88
2023/02/14 11:26:51;;;;;;;11.67;7.60;;;;;;;11.41;100.00;97809.53;6213208;23;20026;-88
2023/02/14 11:29:31;;;;;;;8.37;5.20;;;;;;;11.31;100.00;97805.00;6165719;23;20017;-86
2023/02/14 11:32:21;;;;;;;11.97;8.50;;;;;;;13.25;100.00;97794.66;6188709;23;20016;-87
2023/02/14 11:34:53;;;;;;;11.93;8.23;;;;;;;12.09;100.00;97789.78;6188803;23;20013;-87
2023/02/14 11:37:47;;;;;;;13.10;8.43;;;;;;;12.46;100.00;97787.44;6191697;23;20027;-86
2023/02/14 11:40:32;;;;;;;11.27;7.83;;;;;;;12.39;100.00;97783.69;6213475;22;20005;-87
2023/02/14 11:43:28;;;;;;;;;;;;;;;;;;;;;
2023/02/14 11:46:32;;;;;;;10.93;7.90;;;;;;;12.52;100.00;97782.63;6212711;23;20016;-87
2023/02/14 11:49:22;;;;;;;16.20;8.25;;;;;;;12.97;100.00;97778.56;6207779;23;20103;-86
2023/02/14 11:52:27;;;;;;;11.63;7.63;;;;;;;12.30;100.00;97783.63;6159421;23;20013;-87
2023/02/14 11:54:55;;;;;;;10.80;6.83;;;;;;;11.82;100.00;97787.66;6090871;23;20064;-86
2023/02/14 11:57:36;;;;;;;11.93;8.10;;;;;;;11.64;100.00;97783.94;6165368;23;20026;-86
2023/02/14 12:00:16;;;;;;;10.73;7.10;;;;;;;12.58;100.00;97774.19;6185244;23;20016;-87
2023/02/14 12:02:50;;;;;;;10.63;7.10;;;;;;;12.30;100.00;97773.91;6184019;23;20080;-86
2023/02/14 12:05:47;;;;;;;11.20;7.33;;;;;;;11.95;100.00;97771.66;6184498;23;20023;-87
2023/02/14 12:08:27;;;;;;;11.40;7.53;;;;;;;13.02;100.00;97761.50;6183501;23;20062;-87
2023/02/14 12:11:16;;;;;;;9.68;6.40;;;;;;;13.39;100.00;97753.75;6162855;23;20099;-87
2023/02/14 12:14:00;;;;;;;10.10;7.00;;;;;;;12.90;100.00;97750.22;6183613;23;20012;-87
2023/02/14 12:16:51;;;;;;;12.30;7.33;;;;;;;12.13;100.00;97750.78;6184084;23;20036;-87
2023/02/14 12:19:45;;;;;;;11.20;7.20;;;;;;;13.03;100.00;97748.16;6183544;23;20012;-87
2023/02/14 12:22:18;;;;;;;9.20;6.68;;;;;;;12.27;100.00;97745.16;6160879;23;20432;-88
2023/02/14 12:25:04;;;;;;;9.38;6.57;;;;;;;12.27;100.00;97738.09;6161984;23;20070;-87
2023/02/14 12:27:45;;;;;;;9.82;7.15;;;;;;;12.57;100.00;97738.19;6202746;23;20012;-88
2023/02/14 12:30:15;;;;;;;13.60;8.20;;;;;;;11.18;100.00;97743.78;6185890;23;20027;-88
2023/02/14 12:32:49;;;;;;;11.63;7.80;;;;;;;11.11;100.00;97741.78;6159309;23;20761;-87
2023/02/14 12:35:35;;;;;;;10.30;6.57;;;;;;;11.53;100.00;97738.19;6212922;23;20511;-87
2023/02/14 12:38:22;;;;;;;11.37;7.67;;;;;;;11.48;100.00;97737.78;6183393;23;20515;-88
2023/02/14 12:41:01;;;;;;;10.70;7.23;;;;;;;11.22;100.00;97739.91;6198810;22;20047;-88
2023/02/14 12:43:36;;;;;;;12.87;7.73;;;;;;;12.16;100.00;97722.34;6159444;23;20564;-88
2023/02/14 12:46:28;;;;;;;12.27;8.03;;;;;;;12.43;100.00;97719.13;6213000;23;20388;-88
2023/02/14 12:49:22;;;;;;;11.83;7.20;;;;;;;13.04;100.00;97712.00;6159132;23;20020;-88
2023/02/14 12:52:09;;;;;;;11.30;7.90;;;;;;;11.61;100.00;97715.66;6182809;23;20013;-87
2023/02/14 12:55:09;;;;;;;11.53;8.10;;;;;;;12.35;100.00;97705.78;6183976;23;20005;-88
2023/02/14 12:58:05;;;;;;;12.00;7.90;;;;;;;12.45;100.00;97714.56;6183455;23;20012;-87
2023/02/14 13:00:44;;;;;;;10.43;7.43;;;;;;;13.20;100.00;97707.00;6157725;23;20016;-88
2023/02/14 13:03:49;;;;;;;14.35;8.48;;;;;;;13.24;100.00;97697.84;6183100;23;20079;-88
2023/02/14 13:06:28;;;;;;;13.25;8.25;;;;;;;13.78;100.00;97692.88;6159055;23;20044;-88
2023/02/14 13:09:12;;;;;;;12.65;7.75;;;;;;;13.95;100.00;97691.31;6182902;23;20013;-88
2023/02/14 13:11:41;;;;;;;13.32;8.63;;;;;;;14.52;100.00;97687.63;6208302;23;20009;-89
2023/02/14 13:14:43;;;;;;;12.50;8.15;;;;;;;14.36;100.00;97682.09;6157599;23;20468;-88
2023/02/14 13:17:52;;;;;;;13.75;8.38;;;;;;;13.51;100.00;97683.06;6212130;23;20091;-89
2023/02/14 13:20:35;;;;;;;13.38;8.70;;;;;;;13.89;100.00;97676.88;6117483;23;20016;-88
2023/02/14 13:23:15;;;;;;;19.27;13.73;;;;;;;13.96;100.00;97672.66;6160520;23;20087;-88
2023/02/14 13:26:21;;;;;;;11.95;8.40;;;;;;;14.22;100.00;97671.97;6210314;23;20016;-88
2023/02/14 13:29:13;;;;;;;11.25;8.52;;;;;;;12.94;100.00;97680.31;6101085;23;20063;-87
2023/02/14 13:31:49;;;;;;;10.57;7.70;;;;;;;13.13;100.00;97668.91;6093746;23;20041;-88
2023/02/14 13:34:19;;;;;;;11.38;8.57;;;;;;;12.95;100.00;97674.91;6128325;23;20028;-88
2023/02/14 13:36:47;;;;;;;12.43;9.02;;;;;;;12.46;100.00;97671.34;6186059;23;20016;-88
2023/02/14 13:39:30;;;;;;;14.40;9.25;;;;;;;12.14;100.00;97675.97;6185586;23;20017;-87
2023/02/14 13:41:56;;;;;;;14.27;8.57;;;;;;;11.95;100.00;97671.47;6185518;23;20016;-87
2023/02/14 13:44:51;;;;;;;13.35;8.63;;;;;;;11.83;100.00;97673.31;6160793;23;20008;-87
2023/02/14 13:47:26;;;;;;;11.75;8.80;;;;;;;11.64;100.00;97668.81;6207089;23;20016;-87
2023/02/14 13:49:56;;;;;;;12.87;8.97;;;;;;;11.42;100.00;97664.53;6185704;23;20987;-91
2023/02/14 13:53:06;;;;;;;12.10;8.55;;;;;;;11.12;100.00;97674.97;6188169;23;20027;-90
2023/02/14 13:55:36;;;;;;;16.50;8.87;;;;;;;11.09;100.00;97669.00;6190682;23;20012;-91
2023/02/14 13:58:05;;;;;;;11.80;9.20;;;;;;;11.24;100.00;97669.53;6164885;23;20023;-90
2023/02/14 14:00:46;;;;;;;12.37;8.97;;;;;;;10.98;100.00;97663.81;6163342;23;20071;-90
2023/02/14 14:03:35;;;;;;;11.27;8.20;;;;;;;11.19;100.00;97665.63;6188211;23;20019;-90
2023/02/14 14:06:11;;;;;;;15.27;9.77;;;;;;;11.12;100.00;97661.81;6192153;23;20435;-89
2023/02/14 14:08:40;;;;;;;12.37;8.70;;;;;;;11.19;100.00;97661.19;6189347;23;20020;-87
2023/02/14 14:11:12;;;;;;;12.67;8.23;;;;;;;10.78;100.00;97664.59;6191948;23;20050;-87
2023/02/14 14:14:00;;;;;;;10.25;6.80;;;;;;;10.83;100.00;97657.16;6191111;23;20015;-87
2023/02/14 14:16:33;;;;;;;12.53;8.73;;;;;;;10.69;100.00;97660.91;6205408;22;20004;-88
2023/02/14 14:19:18;;;;;;;14.50;9.73;;;;;;;10.99;100.00;97656.72;6179908;23;20020;-88
2023/02/14 14:22:13;;;;;;;13.10;9.27;;;;;;;10.84;100.00;97661.47;6182683;23;20499;-87
2023/02/14 14:24:49;;;;;;;11.90;9.10;;;;;;;11.02;100.00;97657.31;6160034;23;20421;-87
2023/02/14 14:27:20;;;;;;;12.87;9.00;;;;;;;11.00;100.00;97654.00;6185056;23;20051;-87
2023/02/14 14:29:53;;;;;;;15.77;9.77;;;;;;;10.86;100.00;97659.53;6160579;23;20013;-86
2023/02/14 14:32:28;;;;;;;15.60;10.10;;;;;;;10.35;100.00;97654.91;6158978;23;20032;-87
2023/02/14 14:35:07;;;;;;;13.60;8.93;;;;;;;10.48;100.00;97658.22;6184074;23;20086;-86
2023/02/14 14:37:35;;;;;;;12.80;9.43;;;;;;;10.18;100.00;97658.03;6159841;23;20726;-86
2023/02/14 14:40:19;;;;;;;14.80;9.13;;;;;;;9.98;100.00;97663.06;6184556;23;20013;-86
2023/02/14 14:42:48;;;;;;;15.43;10.15;;;;;;;9.94;100.00;97661.63;6184833;23;20013;-86
2023/02/14 14:45:33;;;;;;;12.37;9.30;;;;;;;10.07;100.00;97654.47;6160124;23;20016;-86
2023/02/14 14:48:19;;;;;;;12.47;9.40;;;;;;;9.74;100.00;97651.84;6209625;23;20080;-87
2023/02/14 14:51:29;;;;;;;13.73;9.47;;;;;;;9.44;100.00;97655.88;6160066;23;20164;-86
2023/02/14 14:54:04;;;;;;;13.10;10.17;;;;;;;9.45;100.00;97660.16;6209525;23;20008;-86
2023/02/14 14:56:50;;;;;;;14.50;10.10;;;;;;;9.31;100.00;97658.59;6158921;23;20020;-87
2023/02/14 14:59:18;;;;;;;15.13;10.53;;;;;;;9.09;100.00;97656.75;6160084;23;20012;-86
2023/02/14 15:01:49;;;;;;;14.27;10.30;;;;;;;9.14;100.00;97661.66;6207608;23;20009;-87
2023/02/14 15:04:24;;;;;;;17.27;9.97;;;;;;;8.96;100.00;97662.09;6160080;23;20032;-87
2023/02/14 15:06:51;;;;;;;13.60;10.07;;;;;;;8.68;100.00;97657.19;6209332;23;20020;-86
2023/02/14 15:13:58;;;;;;;;;;;;;;;;;;;;;
2023/02/14 15:21:19;;;;;;;17.50;10.87;;;;;;;7.90;100.00;97654.91;6208254;23;20067;-86
2023/02/14 15:27:49;;;;;;;15.10;10.23;;;;;;;7.82;100.00;97657.25;6209804;23;20147;-85
2023/02/14 15:38:09;;;;;;;;;;;;;;;;;;;;;
2023/02/14 15:41:44;;;;;;;16.17;11.80;;;;;;;6.78;100.00;97673.81;6129495;23;20095;-86
2023/02/14 15:45:24;;;;;;;;;;;;;;;;;;;;;
2023/02/14 15:52:32;;;;;;;;;;;;;;;;;;;;;
2023/02/14 16:12:29;;;;;;;18.93;13.03;;;;;;;4.73;100.00;97707.19;6272862;22;20338;-86
2023/02/14 16:38:01;;;;;;;23.33;14.20;;;;;;;3.16;100.00;97726.88;6274270;22;20497;-89
2023/02/14 16:42:24;;;;;;;22.77;14.47;;;;;;;3.12;100.00;97733.97;6105772;23;20052;-88
2023/02/14 16:46:05;;;;;;;19.20;13.60;;;;;;;2.93;100.00;97741.81;6136037;23;20059;-89
2023/02/14 16:48:32;;;;;;;24.97;15.07;;;;;;;2.82;100.00;97744.13;6126464;23;20088;-88
2023/02/14 16:51:12;;;;;;;24.90;14.77;;;;;;;2.69;100.00;97740.44;6128689;23;20012;-88
2023/02/14 16:53:41;;;;;;;23.40;15.57;;;;;;;2.59;100.00;97737.44;6160578;22;20096;-88
2023/02/14 16:56:22;;;;;;;23.50;15.30;;;;;;;2.42;100.00;97729.59;6221394;22;20035;-90
2023/02/14 16:58:56;;;;;;;25.97;16.87;;;;;;;2.35;100.00;97739.44;6226004;22;20016;-91
2023/02/14 17:01:28;;;;;;;23.83;15.80;;;;;;;2.09;100.00;97723.28;6223102;22;20016;-91
2023/02/14 17:03:56;;;;;;;27.97;19.83;;;;;;;2.02;100.00;97737.47;6223496;22;20018;-91
2023/02/14 17:06:32;;;;;;;29.37;18.60;;;;;;;1.79;100.00;97732.47;6223511;22;21144;-91
2023/02/14 17:09:37;;;;;;;25.17;16.97;;;;;;;1.82;100.00;97730.56;6227993;22;20008;-91
2023/02/14 17:12:12;;;;;;;25.10;16.17;;;;;;;1.79;100.00;97735.91;6238332;22;20016;-91
2023/02/14 17:14:46;;;;;;;25.47;16.27;;;;;;;1.71;100.00;97737.13;6233435;22;20016;-91
2023/02/14 17:17:24;;;;;;;26.70;17.17;;;;;;;1.67;100.00;97736.44;6224984;22;20090;-91
2023/02/14 17:19:53;;;;;;;26.40;16.53;;;;;;;1.54;100.00;97730.09;6222467;22;20007;-90
2023/02/14 17:22:30;;;;;;;24.53;16.77;;;;;;;1.67;100.00;97727.81;6224164;22;20022;-91
2023/02/14 17:25:05;;;;;;;31.43;19.43;;;;;;;1.64;100.00;97737.44;6224885;22;20022;-90
2023/02/14 17:27:35;;;;;;;28.13;17.60;;;;;;;1.59;100.00;97743.72;6223035;22;20514;-88
2023/02/14 17:30:11;;;;;;;26.13;17.10;;;;;;;1.50;100.00;97744.09;6252336;22;20016;-88
2023/02/14 17:32:44;;;;;;;26.17;15.97;;;;;;;1.38;100.00;97748.06;6227288;22;20931;-88
2023/02/14 17:35:17;;;;;;;19.27;12.38;;;;;;;1.30;100.00;97752.72;6228121;22;21015;-89
2023/02/14 17:37:48;;;;;;;26.27;16.42;;;;;;;1.31;100.00;97757.03;6226455;22;20019;-89
2023/02/14 17:40:15;;;;;;;27.40;15.90;;;;;;;1.17;100.00;97748.09;6222968;22;20321;-89
2023/02/14 17:43:12;;;;;;;25.80;16.00;;;;;;;1.02;100.00;97756.47;6249664;22;20427;-86
2023/02/14 17:45:39;;;;;;;28.40;15.30;;;;;;;0.97;100.00;97762.75;6227678;22;20414;-90
2023/02/14 17:48:11;;;;;;;23.57;15.50;;;;;;;0.74;100.00;97761.06;6229540;22;20411;-90
2023/02/14 17:50:38;;;;;;;24.47;15.07;;;;;;;0.79;100.00;97766.94;6228732;22;20425;-89
2023/02/14 17:53:09;;;;;;;23.53;15.67;;;;;;;0.68;100.00;97770.78;6227532;22;20476;-90